Hebron, South Carolina
Current Conditions -  °F | °C
As of 9:53 AM on Monday 22 Dec 2014 (Local Time) from KFLO Reporting Station
Overcast Overcast  
Wind Chill: 39°   Ceiling: 500
Heat Index: 43°   Visibility: 10mi
Dew Point: 40°   Wind: 7mph
Humidity: 89%   Direction: 40°NE
Pressure: 30.12"   Gusts: NA
Location:  33.8014°N, 79.8006°W
Report Text: KFLO 221453Z 04006KT 10SM OVC005 06/04 A3012 RMK AO2 RAB04E15 SLP197 P0000 60000 T00610044 51005
Loading
Personal Weather Stations






























Interactive Weather Map New forecast layout! Learn more

10-Day Weather Forecast

Advertisements
Track Severe Weather on mobile